Crigler, Arkansas
Current Conditions -  °F | °C
As of 4:53 AM on Friday 19 Dec 2014 (Local Time) from KPBF Reporting Station
Overcast Overcast  
Wind Chill: 37°   Ceiling: 800
Heat Index: 42°   Visibility: 9mi
Dew Point: 38°   Wind: 9mph
Humidity: 85%   Direction: 40°NE
Pressure: 30.2"   Gusts: NA
Location:  33.924°N, 91.8685°W
Report Text: KPBF 191053Z AUTO 04008KT 9SM BKN008 OVC021 06/03 A3020 RMK AO2 SLP228 T00560033
Loading
Personal Weather Stations






























Interactive Weather Map New forecast layout! Learn more

10-Day Weather Forecast

Advertisements
Track Severe Weather on mobile